createdAt,value
2017-01-16T00:00:53.877Z,0
2017-01-16T00:01:52.877Z,0
2017-01-16T00:02:53.503Z,0
2017-01-16T00:03:54.482Z,0
2017-01-16T00:04:52.930Z,0
2017-01-16T00:05:53.884Z,0
2017-01-16T00:06:53.703Z,0
2017-01-16T00:07:52.682Z,0
2017-01-16T00:08:54.306Z,0
2017-01-16T00:09:52.896Z,0
2017-01-16T00:10:53.204Z,0
2017-01-16T00:11:52.573Z,0
2017-01-16T00:12:53.550Z,0
2017-01-16T00:13:52.864Z,0
2017-01-16T00:14:53.079Z,0
2017-01-16T00:15:52.586Z,0
2017-01-16T00:16:53.470Z,0
2017-01-16T00:17:53.074Z,0
2017-01-16T00:18:53.367Z,0
2017-01-16T00:19:53.693Z,0
2017-01-16T00:20:53.324Z,0
2017-01-16T00:21:52.645Z,0
2017-01-16T00:22:53.594Z,0
2017-01-16T00:23:53.062Z,0
2017-01-16T00:24:52.824Z,0
2017-01-16T00:25:53.418Z,0
2017-01-16T00:26:52.760Z,0
2017-01-16T00:27:53.182Z,0
2017-01-16T00:28:52.785Z,0
2017-01-16T00:29:52.691Z,0
2017-01-16T00:30:51.680Z,0
2017-01-16T00:31:53.435Z,0
2017-01-16T00:32:52.339Z,0
2017-01-16T00:33:52.260Z,0
2017-01-16T00:34:52.987Z,0
2017-01-16T00:35:53.001Z,0
2017-01-16T00:36:53.342Z,0
2017-01-16T00:37:52.889Z,0
2017-01-16T00:38:53.205Z,0
2017-01-16T00:39:52.934Z,0
2017-01-16T00:40:52.158Z,0
2017-01-16T00:41:52.945Z,0
2017-01-16T00:42:53.163Z,0
2017-01-16T00:43:53.245Z,0
2017-01-16T00:44:53.028Z,0
2017-01-16T00:45:52.602Z,0
2017-01-16T00:46:52.660Z,0
2017-01-16T00:47:51.948Z,0
2017-01-16T00:48:52.789Z,0
2017-01-16T00:49:52.753Z,0
2017-01-16T00:50:52.469Z,0
2017-01-16T00:51:52.173Z,0
2017-01-16T00:52:51.885Z,0
2017-01-16T00:53:52.587Z,0
2017-01-16T00:54:52.013Z,0
2017-01-16T00:55:53.105Z,0
2017-01-16T00:56:53.051Z,0
2017-01-16T00:57:52.994Z,0
2017-01-16T00:58:52.085Z,0
2017-01-16T00:59:52.952Z,0
2017-01-16T01:00:51.583Z,0
2017-01-16T01:01:51.600Z,0
2017-01-16T01:02:52.612Z,0
2017-01-16T01:03:51.515Z,0
2017-01-16T01:04:52.496Z,0
2017-01-16T01:05:50.744Z,0
2017-01-16T01:06:50.810Z,0
2017-01-16T01:07:51.665Z,0
2017-01-16T01:08:51.648Z,0
2017-01-16T01:09:52.338Z,0
2017-01-16T01:10:51.281Z,0
2017-01-16T01:11:52.019Z,0
2017-01-16T01:12:51.816Z,0
2017-01-16T01:13:52.174Z,0
2017-01-16T01:14:51.885Z,0
2017-01-16T01:15:51.731Z,0
2017-01-16T01:16:51.764Z,0
2017-01-16T01:17:51.840Z,0
2017-01-16T01:18:51.773Z,0
2017-01-16T01:19:51.971Z,0
2017-01-16T01:20:51.442Z,0
2017-01-16T01:21:51.890Z,0
2017-01-16T01:22:51.710Z,0
2017-01-16T01:23:51.028Z,0
2017-01-16T01:24:52.168Z,0
2017-01-16T01:25:50.126Z,0
2017-01-16T01:26:51.617Z,0
2017-01-16T01:27:50.187Z,0
2017-01-16T01:28:51.537Z,0
2017-01-16T01:29:51.486Z,0
2017-01-16T01:30:52.275Z,0
2017-01-16T01:31:51.786Z,0
2017-01-16T01:32:51.832Z,0
2017-01-16T01:33:50.727Z,0
2017-01-16T01:34:50.724Z,0
2017-01-16T01:35:50.940Z,0
2017-01-16T01:36:50.675Z,0
2017-01-16T01:37:51.280Z,0
2017-01-16T01:38:50.930Z,0
2017-01-16T01:39:50.110Z,0
2017-01-16T01:40:50.513Z,0
2017-01-16T01:41:51.107Z,0
2017-01-16T01:42:51.858Z,0
2017-01-16T01:43:51.657Z,0
2017-01-16T01:44:51.107Z,0
2017-01-16T01:45:50.451Z,0
2017-01-16T01:46:50.643Z,0
2017-01-16T01:47:50.354Z,0
2017-01-16T01:48:51.442Z,0
2017-01-16T01:49:50.324Z,0
2017-01-16T01:50:50.632Z,0
2017-01-16T01:51:51.216Z,0
2017-01-16T01:52:50.900Z,0
2017-01-16T01:53:51.189Z,0
2017-01-16T01:54:50.902Z,0
2017-01-16T01:55:50.795Z,0
2017-01-16T01:56:49.496Z,0
2017-01-16T01:57:50.098Z,0
2017-01-16T01:58:50.726Z,0
2017-01-16T01:59:50.477Z,0
2017-01-16T02:00:50.409Z,0
2017-01-16T02:01:50.573Z,0
2017-01-16T02:02:50.783Z,0
2017-01-16T02:03:50.381Z,0
2017-01-16T02:04:50.167Z,0
2017-01-16T02:05:50.210Z,0
2017-01-16T02:06:50.849Z,0
2017-01-16T02:07:50.857Z,0
2017-01-16T02:08:49.794Z,0
2017-01-16T02:09:50.457Z,0
2017-01-16T02:10:50.608Z,0
2017-01-16T02:11:50.714Z,0
2017-01-16T02:12:51.011Z,0
2017-01-16T02:13:49.466Z,0
2017-01-16T02:14:49.697Z,0
2017-01-16T02:15:49.930Z,0
2017-01-16T02:16:50.244Z,0
2017-01-16T02:17:50.258Z,0
2017-01-16T02:18:50.504Z,0
2017-01-16T02:19:49.847Z,0
2017-01-16T02:20:50.187Z,0
2017-01-16T02:21:50.140Z,0
2017-01-16T02:22:50.035Z,0
2017-01-16T02:23:50.076Z,0
2017-01-16T02:24:48.968Z,0
2017-01-16T02:25:49.394Z,0
2017-01-16T02:26:50.184Z,0
2017-01-16T02:27:50.293Z,0
2017-01-16T02:28:49.552Z,0
2017-01-16T02:29:49.149Z,0
2017-01-16T02:30:48.919Z,0
2017-01-16T02:31:49.823Z,0
2017-01-16T02:32:48.850Z,0
2017-01-16T02:33:49.160Z,0
2017-01-16T02:34:49.158Z,0
2017-01-16T02:35:49.789Z,0
2017-01-16T02:36:49.609Z,0
2017-01-16T02:37:49.097Z,0
2017-01-16T02:38:50.317Z,0
2017-01-16T02:39:49.166Z,0
2017-01-16T02:40:49.801Z,0
2017-01-16T02:41:49.024Z,0
2017-01-16T02:42:49.601Z,0
2017-01-16T02:43:48.754Z,0
2017-01-16T02:44:48.704Z,0
2017-01-16T02:45:49.155Z,0
2017-01-16T02:46:50.112Z,0
2017-01-16T02:47:49.488Z,0
2017-01-16T02:48:49.581Z,0
2017-01-16T02:49:48.800Z,0
2017-01-16T02:50:49.221Z,0
2017-01-16T02:51:51.249Z,0
2017-01-16T02:52:50.747Z,0
2017-01-16T02:53:49.269Z,0
2017-01-16T02:54:48.837Z,0
2017-01-16T02:55:49.251Z,0
2017-01-16T02:56:47.881Z,0
2017-01-16T02:57:49.167Z,0
2017-01-16T02:58:49.146Z,0
2017-01-16T02:59:49.414Z,0
2017-01-16T03:00:48.351Z,0
2017-01-16T03:01:49.054Z,0
2017-01-16T03:02:48.735Z,0
2017-01-16T03:03:48.569Z,0
2017-01-16T03:04:48.347Z,0
2017-01-16T03:05:48.297Z,0
2017-01-16T03:06:48.263Z,0
2017-01-16T03:07:49.205Z,0
2017-01-16T03:08:48.236Z,0
2017-01-16T03:09:49.520Z,0
2017-01-16T03:10:48.745Z,0
2017-01-16T03:11:48.790Z,0
2017-01-16T03:12:48.109Z,0
2017-01-16T03:13:48.101Z,0
2017-01-16T03:14:49.037Z,0
2017-01-16T03:15:48.044Z,0
2017-01-16T03:16:47.995Z,0
2017-01-16T03:17:48.645Z,0
2017-01-16T03:18:47.954Z,0
2017-01-16T03:19:48.884Z,0
2017-01-16T03:20:47.603Z,0
2017-01-16T03:21:47.801Z,0
2017-01-16T03:22:48.373Z,0
2017-01-16T03:23:47.610Z,0
2017-01-16T03:24:48.192Z,0
2017-01-16T03:25:48.451Z,0
2017-01-16T03:26:48.238Z,0
2017-01-16T03:27:48.220Z,0
2017-01-16T03:28:48.207Z,0
2017-01-16T03:29:48.101Z,0
2017-01-16T03:30:48.716Z,0
2017-01-16T03:31:48.176Z,0
2017-01-16T03:32:47.455Z,0
2017-01-16T03:33:48.521Z,0
2017-01-16T03:34:48.866Z,0
2017-01-16T03:35:47.331Z,0
2017-01-16T03:36:48.847Z,0
2017-01-16T03:37:48.466Z,0
2017-01-16T03:38:47.785Z,0
2017-01-16T03:39:47.709Z,0
2017-01-16T03:40:47.774Z,0
2017-01-16T03:41:48.020Z,0
2017-01-16T03:42:48.307Z,0
2017-01-16T03:43:47.297Z,0
2017-01-16T03:44:47.271Z,0
2017-01-16T03:45:48.591Z,0
2017-01-16T03:46:47.820Z,0
2017-01-16T03:47:48.371Z,0
2017-01-16T03:48:47.501Z,0
2017-01-16T03:49:48.470Z,0
2017-01-16T03:50:47.776Z,0
2017-01-16T03:51:47.727Z,0
2017-01-16T03:52:48.257Z,0
2017-01-16T03:53:46.710Z,0
2017-01-16T03:54:47.657Z,0
2017-01-16T03:55:47.927Z,0
2017-01-16T03:56:47.207Z,0
2017-01-16T03:57:46.614Z,0
2017-01-16T03:58:46.825Z,0
2017-01-16T03:59:48.180Z,0
2017-01-16T04:00:46.798Z,0
2017-01-16T04:01:46.758Z,0
2017-01-16T04:02:47.017Z,0
2017-01-16T04:03:46.772Z,0
2017-01-16T04:04:47.081Z,0
2017-01-16T04:05:47.375Z,0
2017-01-16T04:06:47.101Z,0
2017-01-16T04:07:46.977Z,0
2017-01-16T04:08:47.642Z,0
2017-01-16T04:09:46.932Z,0
2017-01-16T04:10:47.878Z,0
2017-01-16T04:11:46.811Z,0
2017-01-16T04:12:47.843Z,0
2017-01-16T04:13:47.467Z,0
2017-01-16T04:14:47.207Z,0
2017-01-16T04:15:46.275Z,0
2017-01-16T04:16:46.714Z,0
2017-01-16T04:17:46.589Z,0
2017-01-16T04:18:46.683Z,0
2017-01-16T04:19:47.664Z,0
2017-01-16T04:20:46.878Z,0
2017-01-16T04:21:47.262Z,0
2017-01-16T04:22:46.257Z,0
2017-01-16T04:23:46.571Z,0
2017-01-16T04:24:47.202Z,0
2017-01-16T04:25:46.176Z,0
2017-01-16T04:26:47.110Z,0
2017-01-16T04:27:45.304Z,0
2017-01-16T04:28:45.462Z,0
2017-01-16T04:29:45.663Z,0
2017-01-16T04:30:45.724Z,0
2017-01-16T04:31:46.410Z,0
2017-01-16T04:32:46.545Z,0
2017-01-16T04:33:46.603Z,0
2017-01-16T04:34:45.285Z,0
2017-01-16T04:35:46.565Z,0
2017-01-16T04:36:46.126Z,0
2017-01-16T04:37:46.203Z,0
2017-01-16T04:38:45.811Z,0
2017-01-16T04:39:45.812Z,0
2017-01-16T04:40:45.352Z,0
2017-01-16T04:41:46.404Z,0
2017-01-16T04:42:45.680Z,0
2017-01-16T04:43:45.370Z,0
2017-01-16T04:44:45.021Z,0
2017-01-16T04:45:45.018Z,0
2017-01-16T04:46:46.101Z,0
2017-01-16T04:47:46.788Z,0
2017-01-16T04:48:46.150Z,0
2017-01-16T04:49:45.332Z,0
2017-01-16T04:50:45.910Z,0
2017-01-16T04:51:45.735Z,0
2017-01-16T04:52:46.125Z,0
2017-01-16T04:53:46.074Z,0
2017-01-16T04:54:45.406Z,0
2017-01-16T04:55:46.043Z,0
2017-01-16T04:56:45.936Z,0
2017-01-16T04:57:45.653Z,0
2017-01-16T04:58:45.952Z,0
2017-01-16T04:59:46.630Z,0
2017-01-16T05:00:44.833Z,0
2017-01-16T05:01:45.874Z,0
2017-01-16T05:02:45.682Z,0
2017-01-16T05:03:45.161Z,0
2017-01-16T05:04:45.813Z,0
2017-01-16T05:05:45.124Z,0
2017-01-16T05:06:46.060Z,0
2017-01-16T05:07:46.036Z,0
2017-01-16T05:08:45.376Z,0
2017-01-16T05:09:44.582Z,0
2017-01-16T05:10:44.964Z,0
2017-01-16T05:11:45.586Z,0
2017-01-16T05:12:45.589Z,0
2017-01-16T05:13:45.233Z,0
2017-01-16T05:14:46.053Z,0
2017-01-16T05:15:44.743Z,0
2017-01-16T05:16:45.414Z,0
2017-01-16T05:17:46.102Z,0
2017-01-16T05:18:44.792Z,0
2017-01-16T05:19:45.751Z,0
2017-01-16T05:20:45.678Z,0
2017-01-16T05:21:44.602Z,0
2017-01-16T05:22:45.322Z,0
2017-01-16T05:23:45.970Z,0
2017-01-16T05:24:44.628Z,0
2017-01-16T05:25:44.914Z,0
2017-01-16T05:26:44.483Z,0
2017-01-16T05:27:43.785Z,0
2017-01-16T05:28:44.686Z,0
2017-01-16T05:29:44.415Z,0
2017-01-16T05:30:44.674Z,0
2017-01-16T05:31:45.062Z,0
2017-01-16T05:32:44.644Z,0
2017-01-16T05:33:44.626Z,0
2017-01-16T05:34:45.153Z,0
2017-01-16T05:35:45.292Z,0
2017-01-16T05:36:44.541Z,0
2017-01-16T05:37:44.876Z,0
2017-01-16T05:38:43.911Z,0
2017-01-16T05:39:43.980Z,0
2017-01-16T05:40:44.710Z,0
2017-01-16T05:41:44.839Z,0
2017-01-16T05:42:45.098Z,0
2017-01-16T05:43:45.072Z,0
2017-01-16T05:44:44.018Z,0
2017-01-16T05:45:45.006Z,0
2017-01-16T05:46:44.556Z,0
2017-01-16T05:47:44.325Z,0
2017-01-16T05:48:44.836Z,0
2017-01-16T05:49:44.175Z,0
2017-01-16T05:50:44.234Z,0
2017-01-16T05:51:43.921Z,0
2017-01-16T05:52:44.391Z,0
2017-01-16T05:53:44.512Z,0
2017-01-16T05:54:43.822Z,0
2017-01-16T05:55:45.121Z,0
2017-01-16T05:56:43.770Z,0
2017-01-16T05:57:44.721Z,0
2017-01-16T05:58:44.369Z,0
2017-01-16T05:59:43.986Z,0
2017-01-16T06:00:44.869Z,0
2017-01-16T06:01:43.282Z,0
2017-01-16T06:02:43.511Z,0
2017-01-16T06:03:44.532Z,0
2017-01-16T06:04:43.207Z,0
2017-01-16T06:05:44.197Z,0
2017-01-16T06:06:43.826Z,0
2017-01-16T06:07:43.824Z,0
2017-01-16T06:08:44.095Z,0
2017-01-16T06:09:44.084Z,0
2017-01-16T06:10:44.363Z,0
2017-01-16T06:11:44.273Z,0
2017-01-16T06:12:43.993Z,0
2017-01-16T06:13:44.630Z,0
2017-01-16T06:14:43.303Z,0
2017-01-16T06:15:43.571Z,0
2017-01-16T06:16:43.120Z,0
2017-01-16T06:17:42.860Z,0
2017-01-16T06:18:43.889Z,0
2017-01-16T06:19:43.717Z,0
2017-01-16T06:20:42.469Z,0
2017-01-16T06:21:43.527Z,0
2017-01-16T06:22:42.327Z,0
2017-01-16T06:23:43.287Z,0
2017-01-16T06:24:43.191Z,0
2017-01-16T06:25:43.255Z,0
2017-01-16T06:26:42.866Z,0
2017-01-16T06:27:43.557Z,0
2017-01-16T06:28:43.483Z,0
2017-01-16T06:29:42.549Z,0
2017-01-16T06:30:43.557Z,0
2017-01-16T06:31:43.239Z,0
2017-01-16T06:32:41.973Z,0
2017-01-16T06:33:42.681Z,0
2017-01-16T06:34:43.376Z,0
2017-01-16T06:35:43.349Z,0
2017-01-16T06:36:43.340Z,0
2017-01-16T06:37:43.090Z,0
2017-01-16T06:38:43.298Z,0
2017-01-16T06:39:43.598Z,0
2017-01-16T06:40:43.077Z,0
2017-01-16T06:41:42.874Z,0
2017-01-16T06:42:42.856Z,0
2017-01-16T06:43:42.411Z,0
2017-01-16T06:44:42.813Z,0
2017-01-16T06:45:42.383Z,0
2017-01-16T06:46:42.653Z,0
2017-01-16T06:47:43.023Z,0
2017-01-16T06:48:43.353Z,0
2017-01-16T06:49:43.313Z,0
2017-01-16T06:50:43.320Z,0
2017-01-16T06:51:42.303Z,0
2017-01-16T06:52:43.233Z,0
2017-01-16T06:53:42.561Z,0
2017-01-16T06:54:41.470Z,0
2017-01-16T06:55:43.159Z,0
2017-01-16T06:56:42.344Z,0
2017-01-16T06:57:43.450Z,0
2017-01-16T06:58:42.024Z,0
2017-01-16T06:59:43.503Z,0
2017-01-16T07:00:42.660Z,0
2017-01-16T07:01:42.312Z,4
2017-01-16T07:02:43.173Z,4
2017-01-16T07:03:42.637Z,4
2017-01-16T07:04:42.584Z,0
2017-01-16T07:05:42.244Z,4
2017-01-16T07:06:42.171Z,4
2017-01-16T07:07:43.166Z,0
2017-01-16T07:08:42.811Z,4
2017-01-16T07:09:41.816Z,4
2017-01-16T07:10:43.108Z,4
2017-01-16T07:11:42.668Z,4
2017-01-16T07:12:41.732Z,8
2017-01-16T07:13:41.708Z,8
2017-01-16T07:14:42.007Z,8
2017-01-16T07:15:42.307Z,8
2017-01-16T07:16:41.398Z,12
2017-01-16T07:17:42.556Z,8
2017-01-16T07:18:42.594Z,12
2017-01-16T07:19:42.493Z,12
2017-01-16T07:20:41.423Z,16
2017-01-16T07:21:41.483Z,20
2017-01-16T07:22:42.742Z,20
2017-01-16T07:23:42.271Z,20
2017-01-16T07:24:41.409Z,24
2017-01-16T07:25:42.104Z,20
2017-01-16T07:26:41.919Z,20
2017-01-16T07:27:41.569Z,20
2017-01-16T07:28:41.580Z,20
2017-01-16T07:29:41.260Z,24
2017-01-16T07:30:42.225Z,32
2017-01-16T07:31:41.221Z,32
2017-01-16T07:32:41.241Z,32
2017-01-16T07:33:41.834Z,28
2017-01-16T07:34:40.485Z,32
2017-01-16T07:35:42.064Z,36
2017-01-16T07:36:41.738Z,40
2017-01-16T07:37:40.414Z,40
2017-01-16T07:38:41.995Z,40
2017-01-16T07:39:40.915Z,52
2017-01-16T07:40:41.621Z,64
2017-01-16T07:41:40.451Z,68
2017-01-16T07:42:41.500Z,60
2017-01-16T07:43:42.108Z,68
2017-01-16T07:44:41.436Z,72
2017-01-16T07:45:40.508Z,80
2017-01-16T07:46:41.148Z,92
2017-01-16T07:47:40.693Z,104
2017-01-16T07:48:41.577Z,112
2017-01-16T07:49:41.425Z,124
2017-01-16T07:50:40.414Z,140
2017-01-16T07:51:40.354Z,156
2017-01-16T07:52:41.628Z,172
2017-01-16T07:53:41.200Z,184
2017-01-16T07:54:40.599Z,204
2017-01-16T07:55:41.247Z,224
2017-01-16T07:56:41.199Z,236
2017-01-16T07:57:40.847Z,248
2017-01-16T07:58:41.495Z,264
2017-01-16T07:59:40.394Z,260
2017-01-16T08:00:40.920Z,284
2017-01-16T08:01:40.521Z,308
2017-01-16T08:02:40.536Z,332
2017-01-16T08:03:40.993Z,356
2017-01-16T08:04:40.347Z,376
2017-01-16T08:05:40.890Z,392
2017-01-16T08:06:41.167Z,408
2017-01-16T08:07:40.743Z,440
2017-01-16T08:08:40.167Z,492
2017-01-16T08:09:40.052Z,540
2017-01-16T08:10:39.381Z,608
2017-01-16T08:11:40.490Z,680
2017-01-16T08:12:40.212Z,688
2017-01-16T08:13:40.271Z,696
2017-01-16T08:14:40.761Z,700
2017-01-16T08:15:40.051Z,724
2017-01-16T08:16:40.419Z,792
2017-01-16T08:17:40.979Z,804
2017-01-16T08:18:39.868Z,800
2017-01-16T08:19:40.171Z,804
2017-01-16T08:20:39.667Z,852
2017-01-16T08:21:40.244Z,932
2017-01-16T08:22:40.185Z,1044
2017-01-16T08:23:39.837Z,1180
2017-01-16T08:24:40.164Z,1284
2017-01-16T08:25:40.124Z,1256
2017-01-16T08:26:39.021Z,1220
2017-01-16T08:27:40.076Z,1300
2017-01-16T08:28:39.293Z,1400
2017-01-16T08:29:39.950Z,1532
2017-01-16T08:30:39.545Z,1672
2017-01-16T08:31:39.534Z,1804
2017-01-16T08:32:40.758Z,1836
2017-01-16T08:33:39.910Z,1920
2017-01-16T08:34:39.220Z,2124
2017-01-16T08:35:39.823Z,2172
2017-01-16T08:36:40.324Z,2328
2017-01-16T08:37:40.597Z,2432
2017-01-16T08:38:39.943Z,2616
2017-01-16T08:39:39.983Z,2952
2017-01-16T08:40:39.982Z,3540
2017-01-16T08:41:39.702Z,6668
2017-01-16T08:42:39.615Z,9288
2017-01-16T08:43:39.801Z,9060
2017-01-16T08:44:39.286Z,5508
2017-01-16T08:45:39.974Z,7492
2017-01-16T08:46:39.183Z,8520
2017-01-16T08:47:39.229Z,10684
2017-01-16T08:48:39.186Z,4616
2017-01-16T08:49:38.855Z,3640
2017-01-16T08:50:38.708Z,3236
2017-01-16T08:51:40.060Z,3020
2017-01-16T08:52:39.410Z,2496
2017-01-16T08:53:38.981Z,1732
2017-01-16T08:54:39.998Z,1576
2017-01-16T08:55:39.357Z,1528
2017-01-16T08:56:40.178Z,1488
2017-01-16T08:57:39.956Z,1428
2017-01-16T08:58:38.526Z,1320
2017-01-16T08:59:38.815Z,1324
2017-01-16T09:00:39.556Z,1336
2017-01-16T09:01:39.435Z,1352
2017-01-16T09:02:40.119Z,1576
2017-01-16T09:03:39.514Z,1652
2017-01-16T09:04:39.024Z,1572
2017-01-16T09:05:38.574Z,1576
2017-01-16T09:06:39.394Z,1748
2017-01-16T09:07:39.351Z,2620
2017-01-16T09:08:39.375Z,2000
2017-01-16T09:09:37.914Z,1584
2017-01-16T09:10:38.291Z,1468
2017-01-16T09:11:38.991Z,1332
2017-01-16T09:12:38.576Z,1480
2017-01-16T09:13:39.702Z,1672
2017-01-16T09:14:38.763Z,2136
2017-01-16T09:15:39.119Z,3016
2017-01-16T09:16:38.327Z,2876
2017-01-16T09:17:38.489Z,3500
2017-01-16T09:18:38.417Z,4508
2017-01-16T09:19:38.465Z,4548
2017-01-16T09:20:39.683Z,4220
2017-01-16T09:21:38.770Z,4304
2017-01-16T09:22:38.935Z,4360
2017-01-16T09:23:37.805Z,4388
2017-01-16T09:24:39.604Z,4916
2017-01-16T09:25:38.883Z,5448
2017-01-16T09:26:39.265Z,6528
2017-01-16T09:27:38.193Z,20000
2017-01-16T09:28:38.893Z,10276
2017-01-16T09:29:38.048Z,8472
2017-01-16T09:30:38.432Z,8360
2017-01-16T09:31:38.770Z,9116
2017-01-16T09:32:37.841Z,13760
2017-01-16T09:33:38.283Z,21888
2017-01-16T09:34:37.930Z,18144
2017-01-16T09:35:38.551Z,17568
2017-01-16T09:36:39.305Z,18368
2017-01-16T09:37:37.634Z,23520
2017-01-16T09:38:38.358Z,21472
2017-01-16T09:39:38.464Z,20928
2017-01-16T09:40:38.400Z,20096
2017-01-16T09:41:37.857Z,22240
2017-01-16T09:42:38.676Z,17248
2017-01-16T09:43:38.388Z,20512
2017-01-16T09:44:38.364Z,17792
2017-01-16T09:45:37.707Z,9140
2017-01-16T09:46:37.445Z,19072
2017-01-16T09:47:37.736Z,7968
2017-01-16T09:48:38.252Z,9964
2017-01-16T09:49:37.373Z,7908
2017-01-16T09:50:38.333Z,11160
2017-01-16T09:51:37.538Z,7604
2017-01-16T09:52:37.861Z,17472
2017-01-16T09:53:38.391Z,15936
2017-01-16T09:54:38.904Z,20128
2017-01-16T09:55:37.545Z,17728
2017-01-16T09:56:37.450Z,18976
2017-01-16T09:57:38.180Z,19904
2017-01-16T09:58:38.818Z,13704
2017-01-16T09:59:37.929Z,8676
2017-01-16T10:00:37.296Z,18496
2017-01-16T10:01:38.731Z,7704
2017-01-16T10:02:37.205Z,7064
2017-01-16T10:03:36.651Z,10436
2017-01-16T10:04:38.059Z,21632
2017-01-16T10:05:38.680Z,13632
2017-01-16T10:06:37.997Z,5036
2017-01-16T10:07:37.315Z,5172
2017-01-16T10:08:37.965Z,4868
2017-01-16T10:09:37.276Z,4264
2017-01-16T10:10:37.517Z,4380
2017-01-16T10:11:36.418Z,4832
2017-01-16T10:12:38.192Z,5548
2017-01-16T10:13:37.541Z,5756
2017-01-16T10:14:37.612Z,5492
2017-01-16T10:15:37.342Z,6192
2017-01-16T10:16:37.780Z,6780
2017-01-16T10:17:37.823Z,6388
2017-01-16T10:18:37.432Z,5296
2017-01-16T10:19:38.418Z,4692
2017-01-16T10:20:36.393Z,4604
2017-01-16T10:21:37.113Z,4648
2017-01-16T10:22:37.681Z,4432
2017-01-16T10:23:37.961Z,4320
2017-01-16T10:24:36.787Z,4704
2017-01-16T10:25:37.630Z,5644
2017-01-16T10:26:36.169Z,6852
2017-01-16T10:27:37.214Z,7156
2017-01-16T10:28:37.327Z,7148
2017-01-16T10:29:38.144Z,7604
2017-01-16T10:30:37.479Z,8736
2017-01-16T10:31:37.294Z,7812
2017-01-16T10:32:37.932Z,13888
2017-01-16T10:33:38.070Z,7112
2017-01-16T10:34:36.682Z,9632
2017-01-16T10:35:37.539Z,6400
2017-01-16T10:36:37.305Z,6760
2017-01-16T10:37:36.993Z,11768
2017-01-16T10:38:36.983Z,6256
2017-01-16T10:39:37.052Z,5656
2017-01-16T10:40:37.176Z,5200
2017-01-16T10:41:37.226Z,4532
2017-01-16T10:42:36.468Z,4400
2017-01-16T10:43:37.167Z,4504
2017-01-16T10:44:37.506Z,4136
2017-01-16T10:45:37.008Z,3972
2017-01-16T10:46:37.433Z,3852
2017-01-16T10:47:36.345Z,3724
2017-01-16T10:48:37.583Z,3324
2017-01-16T10:49:35.573Z,3160
2017-01-16T10:50:35.955Z,3052
2017-01-16T10:51:37.153Z,3064
2017-01-16T10:52:36.307Z,3096
2017-01-16T10:53:36.622Z,3236
2017-01-16T10:54:35.868Z,3476
2017-01-16T10:55:36.880Z,3632
2017-01-16T10:56:35.876Z,3668
2017-01-16T10:57:36.084Z,3724
2017-01-16T10:58:37.446Z,4064
2017-01-16T10:59:37.449Z,4344
2017-01-16T11:00:36.798Z,4728
2017-01-16T11:01:36.086Z,5248
2017-01-16T11:02:35.725Z,5728
2017-01-16T11:03:36.593Z,6352
2017-01-16T11:04:36.302Z,11972
2017-01-16T11:05:36.619Z,18624
2017-01-16T11:06:36.615Z,18400
2017-01-16T11:07:35.284Z,11284
2017-01-16T11:08:36.895Z,8112
2017-01-16T11:09:35.745Z,6420
2017-01-16T11:10:35.509Z,6876
2017-01-16T11:11:36.103Z,7184
2017-01-16T11:12:36.184Z,10864
2017-01-16T11:13:37.133Z,12148
2017-01-16T11:14:36.094Z,7108
2017-01-16T11:15:35.760Z,6208
2017-01-16T11:16:36.079Z,6240
2017-01-16T11:17:35.730Z,5724
2017-01-16T11:18:37.020Z,5720
2017-01-16T11:19:35.929Z,5776
2017-01-16T11:20:36.346Z,5620
2017-01-16T11:21:35.557Z,5476
2017-01-16T11:22:36.162Z,5148
2017-01-16T11:23:35.625Z,4680
2017-01-16T11:24:35.800Z,4444
2017-01-16T11:25:35.891Z,4392
2017-01-16T11:26:36.803Z,4384
2017-01-16T11:27:36.131Z,4308
2017-01-16T11:28:36.122Z,4284
2017-01-16T11:29:35.494Z,4556
2017-01-16T11:30:35.092Z,5072
2017-01-16T11:31:35.980Z,5728
2017-01-16T11:32:35.973Z,4936
2017-01-16T11:33:36.205Z,4616
2017-01-16T11:34:36.157Z,4508
2017-01-16T11:35:35.103Z,4464
2017-01-16T11:36:36.758Z,4452
2017-01-16T11:37:34.968Z,4640
2017-01-16T11:38:35.899Z,4820
2017-01-16T11:39:35.861Z,5076
2017-01-16T11:40:35.557Z,5448
2017-01-16T11:41:35.751Z,6532
2017-01-16T11:42:35.803Z,5824
2017-01-16T11:43:35.118Z,6800
2017-01-16T11:44:35.473Z,5860
2017-01-16T11:45:35.382Z,6900
2017-01-16T11:46:35.184Z,12256
2017-01-16T11:47:35.684Z,8700
2017-01-16T11:48:35.040Z,12400
2017-01-16T11:49:36.288Z,12588
2017-01-16T11:50:35.838Z,12172
2017-01-16T11:51:35.788Z,8996
2017-01-16T11:52:35.603Z,6756
2017-01-16T11:53:35.468Z,5792
2017-01-16T11:54:34.305Z,6216
2017-01-16T11:55:35.691Z,10360
2017-01-16T11:56:36.337Z,11264
2017-01-16T11:57:34.849Z,11232
2017-01-16T11:58:35.332Z,8848
2017-01-16T11:59:35.084Z,5260
2017-01-16T12:00:35.424Z,10276
2017-01-16T12:01:35.812Z,8452
2017-01-16T12:02:35.522Z,12852
2017-01-16T12:03:35.010Z,13320
2017-01-16T12:04:34.341Z,14016
2017-01-16T12:05:35.235Z,14528
2017-01-16T12:06:34.930Z,15040
2017-01-16T12:07:34.309Z,15360
2017-01-16T12:08:34.284Z,15552
2017-01-16T12:09:34.563Z,15040
2017-01-16T12:10:34.547Z,15040
2017-01-16T12:11:34.821Z,8560
2017-01-16T12:12:35.098Z,16832
2017-01-16T12:13:35.154Z,16448
2017-01-16T12:14:34.999Z,12744
2017-01-16T12:15:35.493Z,17312
2017-01-16T12:16:35.103Z,17312
2017-01-16T12:17:35.424Z,18144
2017-01-16T12:18:34.331Z,17376
2017-01-16T12:19:34.941Z,17600
2017-01-16T12:20:34.276Z,17472
2017-01-16T12:21:34.989Z,17312
2017-01-16T12:22:33.644Z,16896
2017-01-16T12:23:33.653Z,17216
2017-01-16T12:24:34.528Z,16960
2017-01-16T12:25:35.554Z,7100
2017-01-16T12:26:34.627Z,9012
2017-01-16T12:27:33.970Z,17248
2017-01-16T12:28:34.169Z,17536
2017-01-16T12:29:34.834Z,17760
2017-01-16T12:30:33.960Z,18624
2017-01-16T12:31:33.992Z,19328
2017-01-16T12:32:33.702Z,19872
2017-01-16T12:33:34.100Z,19648
2017-01-16T12:34:33.947Z,18784
2017-01-16T12:35:34.696Z,18528
2017-01-16T12:36:34.688Z,17824
2017-01-16T12:37:35.017Z,17824
2017-01-16T12:38:34.907Z,18848
2017-01-16T12:39:34.656Z,19200
2017-01-16T12:40:34.087Z,19168
2017-01-16T12:41:34.280Z,18528
2017-01-16T12:42:34.014Z,17472
2017-01-16T12:43:34.273Z,16672
2017-01-16T12:44:33.575Z,16640
2017-01-16T12:45:34.532Z,16384
2017-01-16T12:46:35.178Z,16992
2017-01-16T12:47:34.081Z,17248
2017-01-16T12:48:34.217Z,17600
2017-01-16T12:49:33.727Z,17152
2017-01-16T12:50:34.736Z,16384
2017-01-16T12:51:35.097Z,15040
2017-01-16T12:52:35.233Z,12968
2017-01-16T12:53:34.746Z,11436
2017-01-16T12:54:34.726Z,10544
2017-01-16T12:55:33.675Z,10040
2017-01-16T12:56:33.845Z,10608
2017-01-16T12:57:34.968Z,11288
2017-01-16T12:58:33.743Z,10272
2017-01-16T12:59:33.722Z,8924
2017-01-16T13:00:34.596Z,8344
2017-01-16T13:01:34.083Z,8688
2017-01-16T13:02:33.831Z,7212
2017-01-16T13:03:34.611Z,7116
2017-01-16T13:04:34.048Z,7168
2017-01-16T13:05:33.410Z,7476
2017-01-16T13:06:33.806Z,8332
2017-01-16T13:07:33.038Z,8464
2017-01-16T13:08:34.008Z,8736
2017-01-16T13:09:33.379Z,10476
2017-01-16T13:10:33.716Z,11060
2017-01-16T13:11:34.737Z,11148
2017-01-16T13:12:34.350Z,10964
2017-01-16T13:13:34.186Z,11144
2017-01-16T13:14:33.306Z,11572
2017-01-16T13:15:33.874Z,12044
2017-01-16T13:16:33.215Z,12472
2017-01-16T13:17:33.156Z,12356
2017-01-16T13:18:32.881Z,12692
2017-01-16T13:19:32.558Z,13200
2017-01-16T13:20:33.861Z,13124
2017-01-16T13:21:33.086Z,12824
2017-01-16T13:22:33.484Z,12976
2017-01-16T13:23:33.442Z,13376
2017-01-16T13:24:33.773Z,13364
2017-01-16T13:25:34.395Z,13216
2017-01-16T13:26:33.981Z,13080
2017-01-16T13:27:33.703Z,13220
2017-01-16T13:28:34.321Z,13364
2017-01-16T13:29:33.329Z,13348
2017-01-16T13:30:33.239Z,12988
2017-01-16T13:31:32.908Z,12724
2017-01-16T13:32:33.689Z,12732
2017-01-16T13:33:33.274Z,12464
2017-01-16T13:34:33.890Z,12436
2017-01-16T13:35:33.217Z,12088
2017-01-16T13:36:32.533Z,11864
2017-01-16T13:37:32.779Z,11428
2017-01-16T13:38:33.657Z,9788
2017-01-16T13:39:33.775Z,5136
2017-01-16T13:40:33.029Z,5852
2017-01-16T13:41:32.676Z,3688
2017-01-16T13:42:33.281Z,3372
2017-01-16T13:43:32.224Z,3348
2017-01-16T13:44:33.303Z,3296
2017-01-16T13:45:33.772Z,3184
2017-01-16T13:46:32.662Z,3080
2017-01-16T13:47:32.662Z,2880
2017-01-16T13:48:33.004Z,2644
2017-01-16T13:49:32.665Z,3080
2017-01-16T13:50:33.246Z,2404
2017-01-16T13:51:33.210Z,2576
2017-01-16T13:52:32.229Z,2452
2017-01-16T13:53:32.451Z,2308
2017-01-16T13:54:32.739Z,2152
2017-01-16T13:55:32.848Z,2168
2017-01-16T13:56:32.725Z,2040
2017-01-16T13:57:32.988Z,2040
2017-01-16T13:58:32.769Z,2140
2017-01-16T13:59:32.898Z,2340
2017-01-16T14:00:33.396Z,3204
2017-01-16T14:01:32.036Z,5656